Time;durP1;ratioP1;P1;durP2;ratioP2;P2;SDS_P1;SDS_P2;PMS_P1;PMS_P2;Temp;Humidity;BMP_temperature;BMP_pressure;BME280_temperature;BME280_humidity;BME280_pressure;Samples;Min_cycle;Max_cycle;Signal;HPM_P1;HPM_P2
2021/12/08 00:00:28;;;;;;;8.98;3.28;;;-6.60;99.90;;;;;;5014283;28;20022;-81
2021/12/08 00:02:54;;;;;;;20.58;6.35;;;-6.60;99.90;;;;;;5014088;28;20018;-81
2021/12/08 00:05:22;;;;;;;34.50;8.90;;;-6.60;99.90;;;;;;5015026;28;20022;-81
2021/12/08 00:07:49;;;;;;;25.27;8.23;;;-6.70;99.90;;;;;;5015076;28;20030;-81
2021/12/08 00:10:39;;;;;;;8.77;3.17;;;-6.80;99.90;;;;;;5013802;28;20132;-81
2021/12/08 00:13:08;;;;;;;6.90;2.85;;;-6.90;99.90;;;;;;5015036;28;20556;-81
2021/12/08 00:15:43;;;;;;;6.15;2.83;;;-7.10;99.90;;;;;;5010388;28;20405;-81
2021/12/08 00:18:12;;;;;;;7.90;2.22;;;-7.10;99.90;;;;;;5013345;28;20029;-81
2021/12/08 00:20:39;;;;;;;5.28;2.63;;;-7.20;99.90;;;;;;5014690;28;20076;-82
2021/12/08 00:23:07;;;;;;;13.68;5.07;;;-7.20;99.90;;;;;;5013391;28;20026;-82
2021/12/08 00:25:35;;;;;;;11.27;3.75;;;-7.30;99.90;;;;;;5014496;28;20022;-81
2021/12/08 00:28:01;;;;;;;9.15;3.13;;;-7.40;99.90;;;;;;5022886;23;20033;-78
2021/12/08 00:30:29;;;;;;;8.77;3.40;;;-7.30;99.90;;;;;;5014891;28;20026;-77
2021/12/08 00:32:56;;;;;;;7.20;2.40;;;-7.30;99.90;;;;;;5014590;28;20026;-77
2021/12/08 00:35:23;;;;;;;5.38;2.22;;;-7.20;99.90;;;;;;5014739;28;20026;-77
2021/12/08 00:37:49;;;;;;;6.35;2.35;;;-7.20;99.90;;;;;;5014380;28;20018;-77
2021/12/08 00:40:17;;;;;;;5.50;2.45;;;-7.30;99.90;;;;;;5014733;28;20033;-77
2021/12/08 00:42:45;;;;;;;5.15;2.40;;;-7.40;99.90;;;;;;5014492;28;20105;-77
2021/12/08 00:45:15;;;;;;;6.68;2.00;;;-7.40;99.90;;;;;;5014780;28;20462;-77
2021/12/08 00:47:41;;;;;;;6.35;2.30;;;-7.40;99.90;;;;;;5014331;28;20033;-77
2021/12/08 00:50:10;;;;;;;4.53;2.35;;;-7.40;99.90;;;;;;5014126;28;20029;-77
2021/12/08 00:52:36;;;;;;;5.65;1.98;;;-7.50;99.90;;;;;;5012731;28;20032;-77
2021/12/08 00:55:06;;;;;;;4.20;2.28;;;-7.50;99.90;;;;;;5014406;28;20022;-77
2021/12/08 00:57:32;;;;;;;5.93;2.55;;;-7.50;99.90;;;;;;5012926;28;20064;-77
2021/12/08 00:59:58;;;;;;;9.70;2.80;;;-7.40;99.90;;;;;;5013983;28;20022;-77
2021/12/08 01:02:23;;;;;;;8.90;3.33;;;-7.40;99.90;;;;;;5009432;28;20031;-77
2021/12/08 01:04:49;;;;;;;12.38;3.17;;;-7.40;99.90;;;;;;4999776;28;20026;-77
2021/12/08 01:07:15;;;;;;;9.50;3.20;;;-7.40;99.90;;;;;;5006122;28;20030;-77
2021/12/08 01:09:41;;;;;;;10.63;3.55;;;-7.30;99.90;;;;;;5014637;28;20030;-77
2021/12/08 01:12:08;;;;;;;7.05;3.03;;;-7.20;99.90;;;;;;5014212;28;20489;-77
2021/12/08 01:14:34;;;;;;;8.48;2.30;;;-7.20;99.90;;;;;;5014272;28;20022;-77
2021/12/08 01:17:01;;;;;;;8.70;2.42;;;-7.10;99.90;;;;;;5008431;28;20030;-77
2021/12/08 01:19:27;;;;;;;5.63;2.47;;;-7.20;99.90;;;;;;5002012;28;20026;-77
2021/12/08 01:21:53;;;;;;;5.82;2.33;;;-7.20;99.90;;;;;;5004836;28;20025;-77
2021/12/08 01:24:20;;;;;;;7.80;3.17;;;-7.10;99.90;;;;;;5013811;28;20061;-77
2021/12/08 01:26:46;;;;;;;6.82;2.70;;;-7.10;99.90;;;;;;5014035;28;20034;-77
2021/12/08 01:29:12;;;;;;;9.40;3.75;;;-7.10;99.90;;;;;;5013758;28;20123;-77
2021/12/08 01:31:43;;;;;;;9.00;2.90;;;-7.10;99.90;;;;;;5014129;28;20482;-77
2021/12/08 01:34:10;;;;;;;4.60;2.03;;;-7.00;99.90;;;;;;5014215;28;20029;-77
2021/12/08 01:36:36;;;;;;;4.78;1.88;;;-7.10;99.90;;;;;;5012861;28;20072;-77
2021/12/08 01:39:04;;;;;;;4.32;2.00;;;-7.10;99.90;;;;;;5013822;28;20060;-77
2021/12/08 01:41:30;;;;;;;3.00;1.65;;;-7.10;99.90;;;;;;5014865;28;20026;-77
2021/12/08 01:46:39;;;;;;;4.18;1.42;;;-7.20;99.90;;;;;;5015046;28;20048;-77
2021/12/08 01:49:06;;;;;;;5.00;1.90;;;-7.30;99.90;;;;;;5014301;28;20525;-77
2021/12/08 01:51:31;;;;;;;6.20;2.40;;;-7.30;99.90;;;;;;5014626;28;20109;-77
2021/12/08 01:54:01;;;;;;;6.15;3.00;;;-7.30;99.90;;;;;;5017036;28;20054;-78
2021/12/08 01:56:29;;;;;;;9.60;3.67;;;-7.30;99.90;;;;;;5019360;28;20092;-78
2021/12/08 01:58:55;;;;;;;7.72;2.83;;;-7.30;99.90;;;;;;5018788;28;20096;-77
2021/12/08 02:01:23;;;;;;;6.13;2.55;;;-7.30;99.90;;;;;;5019079;28;20438;-78
2021/12/08 02:03:50;;;;;;;4.97;1.98;;;-7.40;99.90;;;;;;5018676;28;20408;-77
2021/12/08 02:06:18;;;;;;;2.97;1.40;;;-7.40;99.90;;;;;;5019482;28;20046;-78
2021/12/08 02:08:47;;;;;;;4.30;1.75;;;-7.50;99.90;;;;;;5018613;28;20026;-78
2021/12/08 02:11:13;;;;;;;2.55;1.67;;;-7.50;99.90;;;;;;5018388;28;20030;-78
2021/12/08 02:13:40;;;;;;;6.05;2.10;;;-7.50;99.90;;;;;;5018475;28;20034;-78
2021/12/08 02:16:08;;;;;;;5.07;1.67;;;-7.60;99.90;;;;;;5014982;28;20057;-78
2021/12/08 02:18:36;;;;;;;3.78;1.80;;;-7.60;99.90;;;;;;5017121;28;20025;-78
2021/12/08 02:21:21;;;;;;;4.63;1.50;;;-7.50;99.90;;;;;;5019221;28;20029;-78
2021/12/08 02:23:47;;;;;;;4.28;1.90;;;-7.50;99.90;;;;;;5018852;28;20052;-78
2021/12/08 02:26:13;;;;;;;4.97;2.00;;;-7.50;99.90;;;;;;5017376;28;20022;-78
2021/12/08 02:28:39;;;;;;;2.72;1.27;;;-7.50;99.90;;;;;;5014461;28;20116;-78
2021/12/08 02:31:09;;;;;;;3.80;1.70;;;-7.50;99.90;;;;;;5017292;28;20025;-78
2021/12/08 02:49:48;;;;;;;4.97;2.28;;;-7.40;99.90;;;;;;5016432;28;20026;-78
2021/12/08 02:52:14;;;;;;;3.58;2.00;;;-7.50;99.90;;;;;;5018286;28;20077;-78
2021/12/08 02:54:45;;;;;;;3.72;1.20;;;-7.50;99.90;;;;;;5016603;28;20050;-78
2021/12/08 02:57:13;;;;;;;2.72;1.35;;;-7.50;99.90;;;;;;5017392;28;20026;-78
2021/12/08 02:59:40;;;;;;;3.17;1.55;;;-7.50;99.90;;;;;;5017804;28;20022;-77
2021/12/08 03:02:07;;;;;;;3.35;1.23;;;-7.50;99.90;;;;;;5017361;28;20029;-77
2021/12/08 03:04:33;;;;;;;7.13;2.13;;;-7.40;99.90;;;;;;5016034;28;20082;-77
2021/12/08 03:06:59;;;;;;;6.20;2.03;;;-7.40;99.90;;;;;;5017246;28;20034;-77
2021/12/08 03:09:25;;;;;;;5.18;2.15;;;-7.40;99.90;;;;;;5017744;28;20076;-78
2021/12/08 03:11:54;;;;;;;5.90;2.45;;;-7.40;99.90;;;;;;5017145;28;20203;-77
2021/12/08 03:14:21;;;;;;;11.77;5.90;;;-7.40;99.90;;;;;;5016023;28;20037;-77
2021/12/08 03:16:51;;;;;;;15.02;7.80;;;-7.30;99.90;;;;;;5017013;28;20033;-77
2021/12/08 03:19:21;;;;;;;11.03;5.10;;;-7.30;99.90;;;;;;5016867;28;20021;-77
2021/12/08 03:21:47;;;;;;;4.30;2.00;;;-7.40;99.90;;;;;;5017108;28;20292;-78
2021/12/08 03:24:33;;;;;;;4.03;1.75;;;-7.50;99.90;;;;;;5017177;28;20022;-77
2021/12/08 03:29:42;;;;;;;2.75;1.35;;;-7.50;99.90;;;;;;5016528;28;20104;-77
2021/12/08 03:32:14;;;;;;;3.50;1.35;;;-7.50;99.90;;;;;;5016855;28;20037;-78
2021/12/08 03:34:49;;;;;;;2.38;1.38;;;-7.50;99.90;;;;;;5017022;28;20030;-77
2021/12/08 03:37:15;;;;;;;2.20;1.27;;;-7.60;99.90;;;;;;5016454;28;20366;-77
2021/12/08 03:39:42;;;;;;;2.88;1.30;;;-7.50;99.90;;;;;;5016690;28;20044;-77
2021/12/08 03:42:09;;;;;;;3.83;1.20;;;-7.50;99.90;;;;;;5016446;28;20529;-77
2021/12/08 03:44:36;;;;;;;2.25;1.23;;;-7.50;99.90;;;;;;5015067;28;20488;-77
2021/12/08 03:47:12;;;;;;;3.60;1.20;;;-7.60;99.90;;;;;;5016245;28;20104;-77
2021/12/08 03:49:38;;;;;;;3.60;1.30;;;-7.60;99.90;;;;;;5015030;28;20343;-77
2021/12/08 03:52:05;;;;;;;3.80;1.58;;;-7.60;99.90;;;;;;5016984;28;20041;-78
2021/12/08 03:54:30;;;;;;;3.40;1.60;;;-7.60;99.90;;;;;;5016736;28;20037;-78
2021/12/08 03:56:57;;;;;;;4.00;1.42;;;-7.60;99.90;;;;;;5016721;28;20026;-78
2021/12/08 03:59:23;;;;;;;2.58;1.42;;;-7.50;99.90;;;;;;5016879;28;20405;-78
2021/12/08 04:01:50;;;;;;;2.72;1.60;;;-7.50;99.90;;;;;;5017690;28;20445;-78
2021/12/08 04:04:16;;;;;;;4.03;1.58;;;-7.50;99.90;;;;;;5017091;28;20018;-78
2021/12/08 04:06:48;;;;;;;4.45;1.95;;;-7.50;99.90;;;;;;5016166;28;20079;-78
2021/12/08 04:09:25;;;;;;;5.13;1.95;;;-7.40;99.90;;;;;;5017259;28;20105;-78
2021/12/08 04:11:51;;;;;;;5.65;2.15;;;-7.40;99.90;;;;;;5017242;28;20025;-78
2021/12/08 04:14:19;;;;;;;3.65;1.30;;;-7.40;99.90;;;;;;5016507;28;20458;-78
2021/12/08 04:16:59;;;;;;;3.75;1.75;;;-7.40;99.90;;;;;;5016064;28;20477;-78
2021/12/08 04:19:26;;;;;;;7.47;3.05;;;-7.50;99.90;;;;;;5015127;28;20026;-78
2021/12/08 04:21:56;;;;;;;7.57;2.35;;;-7.50;99.90;;;;;;5016309;28;20041;-78
2021/12/08 04:24:23;;;;;;;6.75;2.25;;;-7.50;99.90;;;;;;5014428;28;20036;-77
2021/12/08 04:26:58;;;;;;;4.30;1.58;;;-7.50;99.90;;;;;;5015750;28;20022;-77
2021/12/08 04:29:29;;;;;;;5.85;1.83;;;-7.50;99.90;;;;;;5014929;28;20456;-77
2021/12/08 04:31:56;;;;;;;3.67;1.50;;;-7.50;99.90;;;;;;5015494;28;20025;-77
2021/12/08 04:34:27;;;;;;;4.07;1.60;;;-7.40;99.90;;;;;;5015489;28;20172;-77
2021/12/08 04:36:56;;;;;;;4.05;1.45;;;-7.40;99.90;;;;;;5013585;28;20022;-77
2021/12/08 04:39:29;;;;;;;3.28;1.52;;;-7.30;99.90;;;;;;5014661;28;20026;-77
2021/12/08 04:42:03;;;;;;;4.25;1.60;;;-7.20;99.90;;;;;;5013435;28;20045;-77
2021/12/08 04:44:37;;;;;;;3.63;1.48;;;-7.30;99.90;;;;;;5013381;28;20026;-77
2021/12/08 04:52:53;;;;;;;6.57;2.65;;;-7.20;99.90;;;;;;5015506;28;20051;-77
2021/12/08 05:01:19;;;;;;;3.67;1.60;;;-7.10;99.90;;;;;;5014218;28;20024;-75
2021/12/08 05:09:31;;;;;;;2.80;1.60;;;-7.10;99.90;;;;;;5013794;28;20390;-75
2021/12/08 05:12:04;;;;;;;3.97;1.67;;;-7.00;99.90;;;;;;5013774;28;20065;-75
2021/12/08 05:14:54;;;;;;;3.35;1.70;;;-6.90;99.90;;;;;;5013453;28;20080;-75
2021/12/08 05:17:24;;;;;;;3.72;1.70;;;-6.90;99.90;;;;;;5013822;28;20388;-75
2021/12/08 05:19:53;;;;;;;3.88;1.58;;;-6.80;99.90;;;;;;5014057;28;20022;-78
2021/12/08 05:22:28;;;;;;;3.25;1.60;;;-6.80;99.90;;;;;;5015514;28;20022;-78
2021/12/08 05:24:57;;;;;;;3.85;1.30;;;-6.70;99.90;;;;;;5030645;28;20025;-78
2021/12/08 05:27:31;;;;;;;3.25;1.83;;;-6.60;99.90;;;;;;5014874;28;20030;-77
2021/12/08 05:30:01;;;;;;;4.97;1.70;;;-6.60;99.90;;;;;;5017142;28;20034;-78
2021/12/08 05:32:27;;;;;;;3.75;1.60;;;-6.50;99.90;;;;;;5000362;28;20500;-78
2021/12/08 05:34:53;;;;;;;4.80;1.90;;;-6.50;99.90;;;;;;5018414;28;20038;-78
2021/12/08 05:37:22;;;;;;;5.97;1.60;;;-6.50;99.90;;;;;;5017407;28;20030;-77
2021/12/08 05:39:48;;;;;;;2.25;1.33;;;-6.40;99.90;;;;;;5017734;28;20093;-78
2021/12/08 05:42:19;;;;;;;2.88;1.60;;;-6.40;99.90;;;;;;5018073;28;20045;-78
2021/12/08 05:44:45;;;;;;;3.53;1.70;;;-6.30;99.90;;;;;;5018176;28;20093;-77
2021/12/08 05:47:17;;;;;;;4.45;1.65;;;-6.30;99.90;;;;;;5016248;28;20495;-76
2021/12/08 05:49:43;;;;;;;2.78;1.40;;;-6.20;99.90;;;;;;5016664;28;20030;-78
2021/12/08 05:52:09;;;;;;;2.78;1.58;;;-6.20;99.90;;;;;;5017742;28;20466;-77
2021/12/08 05:54:39;;;;;;;2.97;1.60;;;-6.20;99.90;;;;;;5017690;28;20022;-77
2021/12/08 05:57:18;;;;;;;3.90;1.65;;;-6.30;99.90;;;;;;5017140;28;20029;-77
2021/12/08 05:59:46;;;;;;;8.18;3.05;;;-6.30;99.90;;;;;;5015826;28;20076;-77
2021/12/08 06:02:21;;;;;;;6.40;3.10;;;-6.40;99.90;;;;;;5017382;28;20033;-77
2021/12/08 06:04:47;;;;;;;5.05;2.67;;;-6.40;99.90;;;;;;5017414;28;20173;-78
2021/12/08 06:07:14;;;;;;;4.40;2.05;;;-6.50;99.90;;;;;;5016004;28;20026;-78
2021/12/08 06:09:40;;;;;;;4.72;2.25;;;-6.40;99.90;;;;;;5015949;28;20489;-78
2021/12/08 06:12:09;;;;;;;4.97;2.60;;;-6.40;99.90;;;;;;5017298;28;20030;-78
2021/12/08 06:14:35;;;;;;;5.30;2.70;;;-6.30;99.90;;;;;;5017847;28;20448;-78
2021/12/08 06:17:06;;;;;;;9.45;4.75;;;-6.20;99.90;;;;;;5016943;28;20030;-78
2021/12/08 06:19:33;;;;;;;21.17;8.63;;;-6.10;99.90;;;;;;5016744;28;20049;-77
2021/12/08 06:21:59;;;;;;;15.07;6.43;;;-6.10;99.90;;;;;;5017249;28;20022;-78
2021/12/08 06:24:25;;;;;;;11.52;5.63;;;-6.10;99.90;;;;;;5016068;28;20022;-78
2021/12/08 06:26:52;;;;;;;14.43;4.43;;;-6.10;99.90;;;;;;5016374;28;20033;-79
2021/12/08 06:29:19;;;;;;;6.30;3.05;;;-6.00;99.90;;;;;;5017058;28;20037;-79
2021/12/08 06:31:49;;;;;;;7.72;2.38;;;-5.90;99.90;;;;;;5017250;28;20029;-79
2021/12/08 06:34:16;;;;;;;6.65;2.30;;;-5.80;99.90;;;;;;5016434;28;20018;-79
2021/12/08 06:37:06;;;;;;;4.32;2.00;;;-5.80;99.90;;;;;;5016024;28;20500;-79
2021/12/08 06:39:46;;;;;;;5.70;2.13;;;-5.70;99.90;;;;;;5015072;28;20121;-77
2021/12/08 06:42:16;;;;;;;4.28;1.75;;;-5.70;99.90;;;;;;5042627;23;20096;-68
2021/12/08 06:44:45;;;;;;;4.18;2.00;;;-5.60;99.90;;;;;;5035687;28;20033;-68
2021/12/08 06:47:16;;;;;;;5.00;2.17;;;-5.50;99.90;;;;;;5034587;28;20032;-67
2021/12/08 06:49:42;;;;;;;;;;;-5.50;99.90;;;;;;5036342;28;20022;-68
2021/12/08 06:52:12;;;;;;;4.28;1.70;;;-5.40;99.90;;;;;;5035927;28;20277;-67
2021/12/08 06:54:43;;;;;;;4.45;2.03;;;-5.40;99.90;;;;;;5035561;28;20519;-67
2021/12/08 06:57:21;;;;;;;13.65;5.15;;;-5.30;99.90;;;;;;5035662;28;20100;-67
2021/12/08 07:00:02;;;;;;;9.73;3.83;;;-5.30;99.90;;;;;;5035235;28;20029;-67
2021/12/08 07:02:54;;;;;;;15.00;6.30;;;-5.40;99.90;;;;;;5035664;28;20037;-68
2021/12/08 07:05:31;;;;;;;12.02;5.68;;;-5.30;99.90;;;;;;5035316;28;20021;-67
2021/12/08 07:08:06;;;;;;;12.88;5.57;;;-5.30;99.90;;;;;;5035655;28;20184;-67
2021/12/08 07:10:40;;;;;;;12.98;5.38;;;-5.20;99.90;;;;;;5035363;28;20489;-67
2021/12/08 07:13:10;;;;;;;42.58;15.43;;;-5.20;99.90;;;;;;5033829;28;20041;-67
2021/12/08 07:15:51;;;;;;;54.88;19.27;;;-5.20;99.90;;;;;;5035554;28;20053;-68
2021/12/08 07:18:38;;;;;;;50.92;18.33;;;-5.20;99.90;;;;;;5035280;28;20026;-68
2021/12/08 07:21:08;;;;;;;85.53;28.15;;;-5.20;99.90;;;;;;5035335;28;20057;-68
2021/12/08 07:23:40;;;;;;;104.07;33.13;;;-5.10;99.90;;;;;;5035529;28;20028;-68
2021/12/08 07:26:18;;;;;;;97.07;32.88;;;-5.10;99.90;;;;;;5035295;28;20504;-68
2021/12/08 07:28:45;;;;;;;12.35;6.25;;;-5.10;99.90;;;;;;5034914;28;20072;-68
2021/12/08 07:31:21;;;;;;;10.98;4.75;;;-5.10;99.90;;;;;;5035222;28;20485;-67
2021/12/08 07:33:48;;;;;;;8.13;3.30;;;-5.10;99.90;;;;;;5034096;28;20346;-68
2021/12/08 07:36:17;;;;;;;5.63;2.95;;;-5.10;99.90;;;;;;5033881;28;20363;-67
2021/12/08 07:38:46;;;;;;;26.38;9.35;;;-5.10;99.90;;;;;;5034809;28;20026;-67
2021/12/08 07:41:29;;;;;;;39.75;15.93;;;-5.10;99.90;;;;;;5034902;28;20026;-67
2021/12/08 07:43:57;;;;;;;104.30;44.83;;;-5.00;99.90;;;;;;5033294;28;20040;-67
2021/12/08 07:46:27;;;;;;;60.70;28.17;;;-4.90;99.90;;;;;;5034888;28;20474;-67
2021/12/08 07:48:58;;;;;;;55.83;25.33;;;-4.90;99.90;;;;;;5035322;28;20034;-67
2021/12/08 07:51:33;;;;;;;49.67;24.75;;;-4.90;99.90;;;;;;5034355;28;20033;-67
2021/12/08 07:54:00;;;;;;;41.92;23.02;;;-4.80;99.90;;;;;;5034873;28;20024;-67
2021/12/08 07:56:27;;;;;;;29.55;16.15;;;-4.80;99.90;;;;;;5034385;28;20108;-68
2021/12/08 07:59:00;;;;;;;20.75;11.30;;;-4.70;99.90;;;;;;5033389;28;20493;-67
2021/12/08 08:01:35;;;;;;;18.05;9.10;;;-4.70;99.90;;;;;;5034745;28;20045;-67
2021/12/08 08:04:03;;;;;;;17.63;8.68;;;-4.70;99.90;;;;;;5035085;28;20365;-67
2021/12/08 08:06:36;;;;;;;19.13;9.43;;;-4.60;99.90;;;;;;5034261;28;20018;-67
2021/12/08 08:09:07;;;;;;;21.88;10.20;;;-4.60;99.90;;;;;;5033022;28;20029;-67
2021/12/08 08:11:40;;;;;;;16.40;7.90;;;-4.60;99.90;;;;;;5034458;28;20029;-67
2021/12/08 08:14:07;;;;;;;13.20;6.50;;;-4.50;99.90;;;;;;5034055;28;20029;-67
2021/12/08 08:16:35;;;;;;;11.77;6.15;;;-4.50;99.90;;;;;;5034418;28;20025;-67
2021/12/08 08:19:09;;;;;;;12.55;6.07;;;-4.40;99.90;;;;;;5033948;28;20025;-67
2021/12/08 08:21:45;;;;;;;12.02;6.88;;;-4.30;99.90;;;;;;5034291;28;20041;-67
2021/12/08 08:24:12;;;;;;;13.77;6.45;;;-4.20;99.90;;;;;;5033947;28;20022;-67
2021/12/08 08:26:40;;;;;;;19.90;7.55;;;-4.10;99.90;;;;;;5033980;28;20040;-67
2021/12/08 08:29:08;;;;;;;20.20;9.00;;;-4.00;99.90;;;;;;5033545;28;20071;-67
2021/12/08 08:31:42;;;;;;;20.45;9.23;;;-3.90;99.90;;;;;;5033941;28;20036;-67
2021/12/08 08:34:11;;;;;;;17.85;8.02;;;-3.80;99.90;;;;;;5032606;28;20033;-67
2021/12/08 08:36:43;;;;;;;22.45;10.27;;;-3.80;99.90;;;;;;5033901;28;20022;-67
2021/12/08 08:39:18;;;;;;;16.02;7.03;;;-3.70;99.90;;;;;;5032284;28;20025;-67
2021/12/08 08:41:51;;;;;;;15.05;6.72;;;-3.70;99.90;;;;;;5033707;28;20068;-67
2021/12/08 08:44:26;;;;;;;11.05;5.68;;;-3.70;99.90;;;;;;5033453;28;20030;-67
2021/12/08 08:46:54;;;;;;;11.23;5.30;;;-3.70;99.90;;;;;;5033925;28;20104;-67
2021/12/08 08:49:25;;;;;;;11.27;5.20;;;-3.70;99.90;;;;;;5033667;28;20334;-67
2021/12/08 08:52:00;;;;;;;;;;;-3.70;99.90;;;;;;5034522;28;20026;-67
2021/12/08 08:54:28;;;;;;;11.00;4.78;;;-3.60;99.90;;;;;;5033987;28;19905;-67
2021/12/08 08:57:03;;;;;;;10.80;5.45;;;-3.50;99.90;;;;;;5033384;28;20013;-69
2021/12/08 08:59:34;;;;;;;14.70;6.03;;;-3.40;99.90;;;;;;5033197;28;20018;-68
2021/12/08 09:02:03;;;;;;;;;;;-3.30;99.90;;;;;;5032779;28;20029;-69
2021/12/08 09:04:36;;;;;;;10.50;4.30;;;-3.20;99.90;;;;;;5034235;28;20024;-69
2021/12/08 09:07:07;;;;;;;7.38;3.72;;;-3.10;99.90;;;;;;5034290;28;20100;-69
2021/12/08 09:09:40;;;;;;;9.40;4.55;;;-3.00;99.90;;;;;;5034829;28;20021;-69
2021/12/08 09:12:16;;;;;;;23.45;10.75;;;-2.90;99.90;;;;;;5034269;28;20044;-69
2021/12/08 09:15:24;;;;;;;38.22;18.23;;;-2.80;99.90;;;;;;5033873;28;20048;-70
2021/12/08 09:18:04;;;;;;;37.25;14.85;;;-2.60;99.90;;;;;;5033471;28;20034;-70
2021/12/08 09:20:55;;;;;;;24.30;10.00;;;-2.50;99.90;;;;;;5033650;28;20033;-70
2021/12/08 09:23:26;;;;;;;14.30;7.07;;;-2.40;99.90;;;;;;5032857;28;20041;-70
2021/12/08 09:26:00;;;;;;;23.40;10.77;;;-2.30;99.90;;;;;;5034401;28;20330;-70
2021/12/08 09:28:35;;;;;;;18.23;8.43;;;-2.20;99.90;;;;;;5032658;28;20112;-70
2021/12/08 09:31:07;;;;;;;14.20;7.10;;;-2.20;99.90;;;;;;5034411;28;20355;-70
2021/12/08 09:33:42;;;;;;;12.88;6.50;;;-2.10;99.90;;;;;;5034257;28;20108;-70
2021/12/08 09:36:16;;;;;;;11.15;6.25;;;-2.10;99.90;;;;;;5033856;28;20029;-70
2021/12/08 09:38:49;;;;;;;11.20;5.68;;;-2.10;99.90;;;;;;5033577;28;20025;-70
2021/12/08 09:41:27;;;;;;;9.68;5.07;;;-2.10;99.90;;;;;;5033870;28;20418;-70
2021/12/08 09:44:01;;;;;;;9.77;4.75;;;-2.00;99.90;;;;;;5033337;28;20025;-70
2021/12/08 09:46:38;;;;;;;10.55;4.70;;;-1.90;99.90;;;;;;5032483;28;20083;-70
2021/12/08 09:49:05;;;;;;;7.82;4.55;;;-1.90;99.90;;;;;;5033429;28;20052;-69
2021/12/08 09:51:33;;;;;;;10.07;6.10;;;-1.80;99.90;;;;;;5033032;28;20399;-70
2021/12/08 09:53:58;;;;;;;15.60;7.80;;;-1.80;99.90;;;;;;5033135;28;20056;-70
2021/12/08 09:56:25;;;;;;;16.02;6.88;;;-1.80;99.90;;;;;;5033504;28;20061;-70
2021/12/08 09:58:53;;;;;;;12.95;6.35;;;-1.90;99.90;;;;;;5033280;28;20548;-70
2021/12/08 10:01:21;;;;;;;12.60;6.60;;;-1.90;99.90;;;;;;5033798;28;20033;-70
2021/12/08 10:03:49;;;;;;;11.55;7.03;;;-1.90;99.90;;;;;;5034140;28;20454;-70
2021/12/08 10:06:17;;;;;;;14.45;6.88;;;-1.90;99.90;;;;;;5033161;28;20021;-70
2021/12/08 10:08:45;;;;;;;19.50;6.80;;;-1.90;99.90;;;;;;5031942;28;20607;-68
2021/12/08 10:11:12;;;;;;;16.58;8.07;;;-1.80;99.90;;;;;;5031458;28;20477;-68
2021/12/08 10:13:40;;;;;;;18.92;11.38;;;-1.80;99.90;;;;;;5032596;28;20418;-68
2021/12/08 10:16:07;;;;;;;15.48;7.88;;;-1.80;99.90;;;;;;5036183;28;20025;-68
2021/12/08 10:18:33;;;;;;;12.85;6.50;;;-1.70;99.90;;;;;;5036295;28;20052;-68
2021/12/08 10:20:59;;;;;;;10.82;4.20;;;-1.70;99.90;;;;;;5036220;28;20017;-68
2021/12/08 10:23:30;;;;;;;8.00;4.75;;;-1.80;99.90;;;;;;5036458;28;20022;-68
2021/12/08 10:26:13;;;;;;;38.92;10.38;;;-1.70;99.90;;;;;;5036419;28;20017;-69
2021/12/08 10:28:55;;;;;;;144.65;27.40;;;-1.70;99.90;;;;;;5035920;28;20034;-69
2021/12/08 10:31:29;;;;;;;204.80;40.78;;;-1.60;99.90;;;;;;5036673;28;20436;-69
2021/12/08 10:37:00;;;;;;;15.32;6.03;;;-1.60;99.90;;;;;;5036301;28;20116;-69
2021/12/08 10:39:46;;;;;;;9.27;4.85;;;-1.60;99.90;;;;;;5036548;28;20026;-69
2021/12/08 10:42:27;;;;;;;10.80;5.47;;;-1.70;99.90;;;;;;5035862;28;20120;-68
2021/12/08 10:45:01;;;;;;;10.80;5.43;;;-1.80;99.90;;;;;;5035652;28;20025;-68
2021/12/08 10:47:31;;;;;;;10.50;5.60;;;-1.90;99.90;;;;;;5034432;28;20495;-68
2021/12/08 10:55:55;;;;;;;16.45;6.45;;;-1.80;99.90;;;;;;5036072;28;20076;-70
2021/12/08 10:58:28;;;;;;;8.98;5.20;;;-1.60;99.90;;;;;;5035386;28;20029;-70
2021/12/08 11:00:56;;;;;;;13.98;7.25;;;-1.50;99.90;;;;;;5034567;28;20025;-68
2021/12/08 11:03:23;;;;;;;13.07;7.75;;;-1.30;99.90;;;;;;5036331;28;20025;-69
2021/12/08 11:05:59;;;;;;;14.65;8.25;;;-1.20;99.90;;;;;;5036209;28;20021;-69
2021/12/08 11:08:37;;;;;;;43.05;17.33;;;-1.30;99.90;;;;;;5050686;22;20025;-79
2021/12/08 11:11:20;;;;;;;31.83;12.75;;;-1.30;99.90;;;;;;4996380;28;20045;-81
2021/12/08 11:13:49;;;;;;;21.00;8.90;;;-1.20;99.90;;;;;;4998341;28;20560;-79
2021/12/08 11:16:19;;;;;;;14.88;7.30;;;-1.10;99.90;;;;;;4998085;28;20030;-80
2021/12/08 11:18:48;;;;;;;18.23;7.85;;;-1.00;99.90;;;;;;4993876;28;20023;-80
2021/12/08 11:21:31;;;;;;;13.57;6.95;;;-1.00;99.90;;;;;;4978662;28;20027;-80
2021/12/08 11:23:59;;;;;;;16.50;7.97;;;-0.90;99.90;;;;;;4985740;28;20055;-80
2021/12/08 11:26:37;;;;;;;40.80;16.08;;;-0.80;99.90;;;;;;4993984;28;20050;-80
2021/12/08 11:29:02;;;;;;;17.88;9.07;;;-0.70;99.90;;;;;;4998615;28;20049;-79
2021/12/08 11:31:48;;;;;;;12.20;6.35;;;-0.60;99.90;;;;;;4997394;28;20026;-79
2021/12/08 11:34:24;;;;;;;10.68;5.53;;;-0.60;99.90;;;;;;4996800;28;20482;-78
2021/12/08 11:37:00;;;;;;;10.35;5.55;;;-0.50;99.90;;;;;;4997083;28;20026;-79
2021/12/08 11:39:33;;;;;;;13.63;5.93;;;-0.50;99.90;;;;;;4997674;28;20022;-79
2021/12/08 11:42:22;;;;;;;11.70;5.70;;;-0.40;99.90;;;;;;4996147;28;20478;-82
2021/12/08 11:44:51;;;;;;;15.60;7.00;;;-0.30;99.90;;;;;;4996218;28;20030;-77
2021/12/08 11:47:22;;;;;;;23.48;10.25;;;-0.10;99.90;;;;;;4997664;28;20046;-78
2021/12/08 11:49:52;;;;;;;27.77;12.32;;;0.10;99.90;;;;;;4997194;28;20026;-79
2021/12/08 11:52:23;;;;;;;49.97;18.05;;;0.30;99.90;;;;;;4995298;28;20061;-78
2021/12/08 11:54:56;;;;;;;37.50;15.27;;;0.40;99.90;;;;;;4998249;28;20076;-78
2021/12/08 11:57:39;;;;;;;32.08;12.60;;;0.50;99.90;;;;;;4996967;28;20383;-78
2021/12/08 12:00:28;;;;;;;16.33;9.15;;;0.50;99.90;;;;;;4998088;28;20029;-78
2021/12/08 12:02:57;;;;;;;12.70;7.22;;;0.50;99.90;;;;;;4997425;28;20022;-79
2021/12/08 12:05:41;;;;;;;12.38;6.65;;;0.40;99.90;;;;;;4997971;28;20485;-78
2021/12/08 12:08:12;;;;;;;12.25;6.13;;;0.30;99.90;;;;;;4997584;28;20049;-80
2021/12/08 12:10:39;;;;;;;;;;;0.20;99.90;;;;;;5012565;28;20057;-78
2021/12/08 12:13:08;;;;;;;13.35;7.03;;;0.20;99.90;;;;;;4995913;28;19913;-78
2021/12/08 12:15:36;;;;;;;11.52;6.20;;;0.20;99.90;;;;;;4996271;28;20169;-78
2021/12/08 12:18:03;;;;;;;13.60;6.72;;;0.10;99.90;;;;;;5012177;28;20033;-78
2021/12/08 12:20:36;;;;;;;42.80;20.38;;;0.10;99.90;;;;;;4997342;28;20027;-78
2021/12/08 12:23:20;;;;;;;32.20;16.38;;;0.00;99.90;;;;;;4996667;28;20026;-78
2021/12/08 12:26:04;;;;;;;13.45;7.40;;;0.00;99.90;;;;;;4996336;28;20380;-78
2021/12/08 12:29:06;;;;;;;14.20;6.45;;;0.10;99.90;;;;;;4996815;28;20160;-78
2021/12/08 12:31:45;;;;;;;9.40;4.97;;;0.20;99.90;;;;;;4996953;28;20022;-78
2021/12/08 12:34:35;;;;;;;18.45;9.80;;;0.30;99.90;;;;;;4996209;28;20046;-78
2021/12/08 12:37:13;;;;;;;24.30;13.68;;;0.50;99.90;;;;;;5010886;28;20038;-78
2021/12/08 12:39:50;;;;;;;28.15;14.77;;;0.50;99.90;;;;;;4994886;28;20549;-78
2021/12/08 12:42:18;;;;;;;23.60;12.82;;;0.60;99.90;;;;;;5021553;22;20053;-71
2021/12/08 12:45:15;;;;;;;16.73;9.35;;;0.60;99.90;;;;;;5029609;28;20041;-71
2021/12/08 12:47:43;;;;;;;11.73;7.53;;;0.60;99.90;;;;;;5012579;28;20052;-71
2021/12/08 12:50:18;;;;;;;12.13;6.47;;;0.50;99.90;;;;;;5011944;28;20022;-71
2021/12/08 12:52:48;;;;;;;16.90;7.32;;;0.40;99.90;;;;;;5012281;28;20056;-71
2021/12/08 12:55:20;;;;;;;13.25;6.45;;;0.30;99.90;;;;;;5013124;28;20101;-72
2021/12/08 12:58:03;;;;;;;14.43;6.45;;;0.30;99.90;;;;;;5013024;28;20108;-71
2021/12/08 13:00:44;;;;;;;11.05;6.07;;;0.20;99.90;;;;;;5013303;28;20105;-72
2021/12/08 13:03:40;;;;;;;11.73;7.15;;;0.10;99.90;;;;;;5013302;28;20033;-72
2021/12/08 13:06:08;;;;;;;14.70;6.85;;;0.00;99.90;;;;;;5012953;28;20028;-72
2021/12/08 13:08:36;;;;;;;9.77;6.03;;;0.00;99.90;;;;;;5013468;28;20022;-72
2021/12/08 13:11:11;;;;;;;11.10;6.20;;;0.00;99.90;;;;;;5013072;28;20505;-71
2021/12/08 13:13:50;;;;;;;11.95;6.30;;;0.00;99.90;;;;;;5011650;28;20026;-71
2021/12/08 13:16:34;;;;;;;10.45;5.32;;;0.00;99.90;;;;;;5013075;28;20022;-71
2021/12/08 13:19:05;;;;;;;13.07;5.57;;;-0.10;99.90;;;;;;5012849;28;20025;-71
2021/12/08 13:21:46;;;;;;;10.82;5.03;;;-0.20;99.90;;;;;;5011560;28;20018;-71
2021/12/08 13:24:33;;;;;;;10.27;5.68;;;-0.20;99.90;;;;;;5013016;28;20029;-72
2021/12/08 13:27:28;;;;;;;9.55;5.38;;;-0.20;99.90;;;;;;5013256;28;20030;-71
2021/12/08 13:30:10;;;;;;;12.13;6.20;;;-0.20;99.90;;;;;;5011336;28;20030;-71
2021/12/08 13:32:46;;;;;;;12.50;6.88;;;-0.30;99.90;;;;;;5013101;28;20025;-71
2021/12/08 13:35:12;;;;;;;14.43;6.95;;;-0.30;99.90;;;;;;5012837;28;20432;-71
2021/12/08 13:37:56;;;;;;;10.75;6.45;;;-0.40;99.90;;;;;;5013168;28;20022;-71
2021/12/08 13:40:44;;;;;;;42.63;16.20;;;-0.40;99.90;;;;;;5011535;28;20497;-72
2021/12/08 13:43:11;;;;;;;235.43;73.28;;;-0.40;99.90;;;;;;5012382;28;20117;-72
2021/12/08 13:45:43;;;;;;;371.15;124.47;;;-0.40;99.90;;;;;;5012663;28;20029;-72
2021/12/08 13:48:10;;;;;;;149.55;45.00;;;-0.40;99.90;;;;;;5012946;28;20385;-71
2021/12/08 13:50:37;;;;;;;154.20;52.83;;;-0.50;99.90;;;;;;5015601;28;20430;-70
2021/12/08 13:53:13;;;;;;;119.97;39.40;;;-0.50;99.90;;;;;;5016878;28;20065;-70